createdAt,value
2023-02-26T00:04:32.126Z,-3.39
2023-02-26T00:09:37.049Z,-3.19
2023-02-26T00:14:44.135Z,-2.99
2023-02-26T00:19:49.530Z,-2.75
2023-02-26T00:24:55.226Z,-2.50
2023-02-26T00:30:00.810Z,-2.26
2023-02-26T00:35:06.420Z,-2.05
2023-02-26T00:40:18.208Z,-1.81
2023-02-26T00:45:24.382Z,-1.58
2023-02-26T00:50:31.343Z,-1.37
2023-02-26T00:55:36.513Z,-1.13
2023-02-26T01:00:43.098Z,-0.93
2023-02-26T01:05:48.577Z,-0.73
2023-02-26T01:10:54.891Z,-0.53
2023-02-26T01:16:07.723Z,-0.33
2023-02-26T01:21:21.261Z,-0.13
2023-02-26T01:26:31.070Z,0.09
2023-02-26T01:31:53.019Z,0.30
2023-02-26T01:37:24.135Z,0.54
2023-02-26T01:42:33.681Z,0.76
2023-02-26T01:47:47.921Z,1.00
2023-02-26T01:52:53.025Z,1.23
2023-02-26T01:58:01.698Z,1.45
2023-02-26T02:03:07.773Z,1.64
2023-02-26T02:08:14.669Z,1.89
2023-02-26T02:13:47.859Z,2.14
2023-02-26T02:19:22.643Z,2.38
2023-02-26T02:24:55.956Z,2.58
2023-02-26T02:30:26.827Z,2.85
2023-02-26T02:35:39.310Z,3.09
2023-02-26T02:40:50.929Z,3.31
2023-02-26T02:46:06.226Z,3.51
2023-02-26T02:51:30.962Z,3.75
2023-02-26T02:56:53.136Z,3.95
2023-02-26T03:02:40.772Z,4.18
2023-02-26T03:07:56.091Z,4.34
2023-02-26T03:13:01.471Z,4.47
2023-02-26T03:18:35.622Z,4.64
2023-02-26T03:24:09.589Z,4.83
2023-02-26T03:29:29.810Z,5.08
2023-02-26T03:34:55.490Z,5.32
2023-02-26T03:40:07.095Z,5.51
2023-02-26T03:45:18.288Z,5.75
2023-02-26T03:50:48.437Z,5.91
2023-02-26T03:56:48.576Z,6.09
2023-02-26T04:02:27.024Z,6.30
2023-02-26T04:07:38.692Z,6.47
2023-02-26T04:12:45.158Z,6.62
2023-02-26T04:17:50.861Z,6.79
2023-02-26T04:22:56.457Z,6.94
2023-02-26T04:28:02.962Z,7.13
2023-02-26T04:33:09.962Z,7.26
2023-02-26T04:38:33.359Z,7.37
2023-02-26T04:43:56.619Z,7.43
2023-02-26T04:49:20.005Z,7.58
2023-02-26T04:54:43.574Z,7.72
2023-02-26T05:00:10.247Z,7.82
2023-02-26T05:05:33.700Z,7.92
2023-02-26T05:10:58.117Z,8.07
2023-02-26T05:16:21.438Z,8.15
2023-02-26T05:21:44.344Z,8.22
2023-02-26T05:27:08.128Z,8.30
2023-02-26T05:32:20.725Z,8.39
2023-02-26T05:37:26.126Z,8.44
2023-02-26T05:42:31.389Z,8.47
2023-02-26T05:47:38.106Z,8.53
2023-02-26T05:52:43.522Z,8.49
2023-02-26T05:57:49.034Z,8.56
2023-02-26T06:02:55.401Z,8.61
2023-02-26T06:08:00.712Z,8.70
2023-02-26T06:13:06.125Z,8.78
2023-02-26T06:18:11.435Z,8.86
2023-02-26T06:23:16.651Z,8.97
2023-02-26T06:28:22.691Z,9.00
2023-02-26T06:33:30.850Z,9.02
2023-02-26T06:38:38.370Z,9.09
2023-02-26T06:43:43.942Z,9.10
2023-02-26T06:48:49.299Z,9.20
2023-02-26T06:53:54.646Z,9.27
2023-02-26T06:58:59.977Z,9.36
2023-02-26T07:04:05.357Z,9.44
2023-02-26T07:09:10.858Z,9.48
2023-02-26T07:14:16.234Z,9.51
2023-02-26T07:19:21.906Z,9.51
2023-02-26T07:24:27.588Z,9.48
2023-02-26T07:29:32.428Z,9.49
2023-02-26T07:34:37.752Z,9.47
2023-02-26T07:39:43.114Z,9.48
2023-02-26T07:44:48.900Z,9.46
2023-02-26T07:49:54.509Z,9.48
2023-02-26T07:55:00.000Z,9.48
2023-02-26T08:00:08.757Z,9.51
2023-02-26T08:05:19.280Z,9.49
2023-02-26T08:10:24.859Z,9.48
2023-02-26T08:15:30.310Z,9.48
2023-02-26T08:20:37.302Z,9.43
2023-02-26T08:25:42.998Z,9.37
2023-02-26T08:30:48.473Z,9.29
2023-02-26T08:35:55.222Z,9.24
2023-02-26T08:41:01.256Z,9.17
2023-02-26T08:46:08.407Z,9.11
2023-02-26T08:51:14.869Z,8.99
2023-02-26T08:56:22.825Z,8.88
2023-02-26T09:01:29.408Z,8.76
2023-02-26T09:06:35.427Z,8.64
2023-02-26T09:11:41.113Z,8.52
2023-02-26T09:16:46.718Z,8.37
2023-02-26T09:21:52.639Z,8.26
2023-02-26T09:26:59.593Z,8.12
2023-02-26T09:32:06.825Z,8.00
2023-02-26T09:37:16.148Z,7.84
2023-02-26T09:42:37.108Z,7.68
2023-02-26T09:47:48.672Z,7.50
2023-02-26T09:53:20.532Z,7.29
2023-02-26T09:58:28.999Z,7.14
2023-02-26T10:04:03.854Z,6.96
2023-02-26T10:09:39.480Z,6.74
2023-02-26T10:15:00.695Z,6.54
2023-02-26T10:20:30.855Z,6.41
2023-02-26T10:26:14.192Z,6.24
2023-02-26T10:31:47.355Z,6.16
2023-02-26T10:37:23.407Z,6.07
2023-02-26T10:42:41.176Z,5.98
2023-02-26T10:54:03.174Z,5.82
2023-02-26T10:59:09.023Z,5.77
2023-02-26T11:04:20.908Z,5.69
2023-02-26T11:09:46.927Z,5.59
2023-02-26T11:14:53.165Z,5.52
2023-02-26T11:20:00.851Z,5.38
2023-02-26T11:25:08.069Z,5.24
2023-02-26T11:30:23.202Z,5.14
2023-02-26T11:35:29.825Z,5.04
2023-02-26T11:40:41.338Z,4.96
2023-02-26T11:45:51.798Z,4.90
2023-02-26T11:51:03.228Z,4.83
2023-02-26T11:56:15.940Z,4.84
2023-02-26T12:01:24.750Z,4.76
2023-02-26T12:06:30.589Z,4.47
2023-02-26T12:12:06.290Z,4.33
2023-02-26T12:17:14.559Z,4.00
2023-02-26T12:22:38.835Z,3.64
2023-02-26T12:28:05.100Z,3.38
2023-02-26T12:33:17.194Z,3.17
2023-02-26T12:38:27.650Z,2.99
2023-02-26T12:43:36.291Z,2.87
2023-02-26T12:49:18.715Z,2.74
2023-02-26T12:54:36.656Z,2.65
2023-02-26T12:59:51.662Z,2.58
2023-02-26T13:05:04.485Z,2.50
2023-02-26T13:10:32.864Z,2.46
2023-02-26T13:15:41.746Z,2.46
2023-02-26T13:21:13.211Z,2.42
2023-02-26T13:26:21.222Z,2.41
2023-02-26T13:31:42.164Z,2.39
2023-02-26T13:36:50.674Z,2.43
2023-02-26T13:42:15.813Z,2.53
2023-02-26T13:47:40.133Z,2.57
2023-02-26T13:52:58.058Z,2.52
2023-02-26T13:58:24.446Z,2.51
2023-02-26T14:03:30.984Z,2.50
2023-02-26T14:08:42.710Z,2.33
2023-02-26T14:14:14.336Z,2.17
2023-02-26T14:19:46.408Z,2.08
2023-02-26T14:25:19.900Z,2.02
2023-02-26T14:30:53.666Z,2.03
2023-02-26T14:36:02.096Z,2.17
2023-02-26T14:41:29.842Z,2.27
2023-02-26T14:46:38.037Z,2.40
2023-02-26T14:52:03.091Z,2.43
2023-02-26T14:57:33.863Z,2.48
2023-02-26T15:03:23.958Z,2.50
2023-02-26T15:08:38.924Z,2.43
2023-02-26T15:14:02.901Z,2.28
2023-02-26T15:19:28.787Z,2.18
2023-02-26T15:24:35.399Z,2.18
2023-02-26T15:29:47.998Z,2.17
2023-02-26T15:35:23.164Z,2.24
2023-02-26T15:40:34.920Z,2.36
2023-02-26T15:45:44.636Z,2.44
2023-02-26T15:50:58.443Z,2.46
2023-02-26T15:56:14.790Z,2.45
2023-02-26T16:01:23.377Z,2.49
2023-02-26T16:06:39.598Z,2.45
2023-02-26T16:11:48.194Z,2.35
2023-02-26T16:16:57.514Z,2.33
2023-02-26T16:22:09.554Z,2.32
2023-02-26T16:27:16.532Z,2.29
2023-02-26T16:32:22.909Z,2.31
2023-02-26T16:37:32.177Z,2.37
2023-02-26T16:43:05.280Z,2.39
2023-02-26T16:48:37.779Z,2.42
2023-02-26T16:53:49.171Z,2.39
2023-02-26T16:59:11.406Z,2.33
2023-02-26T17:04:20.262Z,2.35
2023-02-26T17:09:48.494Z,2.28
2023-02-26T17:15:04.876Z,2.19
2023-02-26T17:20:12.167Z,2.18
2023-02-26T17:25:20.437Z,2.13
2023-02-26T17:30:27.379Z,2.12
2023-02-26T17:35:34.325Z,2.14
2023-02-26T17:40:40.116Z,2.17
2023-02-26T17:45:45.886Z,2.17
2023-02-26T17:50:56.988Z,2.15
2023-02-26T17:56:02.741Z,2.12
2023-02-26T18:01:10.099Z,2.08
2023-02-26T18:06:17.922Z,1.98
2023-02-26T18:11:27.439Z,1.89
2023-02-26T18:16:39.832Z,1.74
2023-02-26T18:21:45.744Z,1.61
2023-02-26T18:26:51.720Z,1.52
2023-02-26T18:31:58.220Z,1.58
2023-02-26T18:37:06.039Z,1.63
2023-02-26T18:42:24.185Z,1.67
2023-02-26T18:47:29.794Z,1.69
2023-02-26T18:52:36.092Z,1.66
2023-02-26T18:57:44.010Z,1.69
2023-02-26T19:02:49.744Z,1.69
2023-02-26T19:07:57.213Z,1.56
2023-02-26T19:13:02.762Z,1.46
2023-02-26T19:18:08.586Z,1.34
2023-02-26T19:23:14.226Z,1.28
2023-02-26T19:28:20.417Z,1.23
2023-02-26T19:33:26.119Z,1.22
2023-02-26T19:38:31.690Z,1.25
2023-02-26T19:43:37.237Z,1.23
2023-02-26T19:48:43.613Z,1.29
2023-02-26T19:53:49.254Z,1.29
2023-02-26T19:58:54.635Z,1.29
2023-02-26T20:04:00.050Z,1.20
2023-02-26T20:09:08.527Z,1.06
2023-02-26T20:14:14.857Z,0.94
2023-02-26T20:19:20.595Z,0.89
2023-02-26T20:24:27.798Z,0.84
2023-02-26T20:29:35.251Z,0.78
2023-02-26T20:34:40.637Z,0.79
2023-02-26T20:39:45.844Z,0.80
2023-02-26T20:44:51.129Z,0.79
2023-02-26T20:49:56.438Z,0.80
2023-02-26T20:55:01.741Z,0.80
2023-02-26T21:00:12.533Z,0.85
2023-02-26T21:05:18.186Z,0.82
2023-02-26T21:10:23.537Z,0.70
2023-02-26T21:15:29.840Z,0.58
2023-02-26T21:20:35.501Z,0.46
2023-02-26T21:25:41.392Z,0.38
2023-02-26T21:30:46.794Z,0.28
2023-02-26T21:35:53.413Z,0.27
2023-02-26T21:41:00.557Z,0.25
2023-02-26T21:46:06.593Z,0.23
2023-02-26T21:51:11.965Z,0.24
2023-02-26T21:56:17.833Z,0.21
2023-02-26T22:01:22.717Z,0.26
2023-02-26T22:06:28.197Z,0.26
2023-02-26T22:11:33.524Z,0.13
2023-02-26T22:16:38.901Z,-0.02
2023-02-26T22:21:44.266Z,-0.06
2023-02-26T22:26:50.596Z,-0.10
2023-02-26T22:31:57.991Z,-0.16
2023-02-26T22:37:03.652Z,-0.24
2023-02-26T22:42:12.372Z,-0.23
2023-02-26T22:47:17.901Z,-0.21
2023-02-26T22:52:23.140Z,-0.22
2023-02-26T22:57:29.728Z,-0.23
2023-02-26T23:02:35.201Z,-0.20
2023-02-26T23:07:42.349Z,-0.11
2023-02-26T23:12:48.519Z,-0.09
2023-02-26T23:17:53.845Z,-0.10
2023-02-26T23:22:59.495Z,-0.12
2023-02-26T23:28:05.816Z,-0.17
2023-02-26T23:33:11.652Z,-0.21
2023-02-26T23:38:17.223Z,-0.28
2023-02-26T23:43:22.585Z,-0.23
2023-02-26T23:48:28.715Z,-0.19
2023-02-26T23:53:35.489Z,-0.13
2023-02-26T23:58:40.843Z,-0.07
